createdAt,value
2017-09-08T00:00:36.075Z,96499.59
2017-09-08T00:03:01.863Z,96495.73
2017-09-08T00:05:27.627Z,96491.61
2017-09-08T00:07:53.390Z,96481.97
2017-09-08T00:10:19.168Z,96484.20
2017-09-08T00:12:44.986Z,96491.72
2017-09-08T00:15:10.743Z,96488.02
2017-09-08T00:17:36.994Z,96484.00
2017-09-08T00:20:02.863Z,96485.09
2017-09-08T00:22:29.435Z,96489.66
2017-09-08T00:24:55.186Z,96490.91
2017-09-08T00:27:20.963Z,96479.73
2017-09-08T00:29:46.730Z,96485.48
2017-09-08T00:32:12.508Z,96487.65
2017-09-08T00:34:38.419Z,96480.73
2017-09-08T00:37:04.207Z,96482.10
2017-09-08T00:39:30.011Z,96482.73
2017-09-08T00:41:55.810Z,96480.96
2017-09-08T00:44:21.611Z,96481.12
2017-09-08T00:46:47.356Z,96485.70
2017-09-08T00:49:13.144Z,96479.23
2017-09-08T00:51:38.912Z,96477.88
2017-09-08T00:54:04.691Z,96471.37
2017-09-08T00:56:30.479Z,96464.87
2017-09-08T00:58:56.767Z,96462.38
2017-09-08T01:01:22.667Z,96460.16
2017-09-08T01:03:48.442Z,96459.38
2017-09-08T01:06:14.222Z,96459.27
2017-09-08T01:08:40.042Z,96445.70
2017-09-08T01:11:05.855Z,96443.17
2017-09-08T01:13:31.607Z,96437.48
2017-09-08T01:15:57.437Z,96433.49
2017-09-08T01:18:23.202Z,96429.86
2017-09-08T01:20:48.959Z,96424.52
2017-09-08T01:23:14.782Z,96425.22
2017-09-08T01:25:40.530Z,96424.98
2017-09-08T01:28:06.838Z,96421.11
2017-09-08T01:30:32.674Z,96424.42
2017-09-08T01:32:58.414Z,96420.38
2017-09-08T01:35:24.190Z,96423.08
2017-09-08T01:37:49.939Z,96419.70
2017-09-08T01:40:15.703Z,96412.23
2017-09-08T01:42:41.438Z,96412.14
2017-09-08T01:45:07.235Z,96411.89
2017-09-08T01:47:33.006Z,96408.97
2017-09-08T01:49:58.855Z,96405.37
2017-09-08T01:52:25.539Z,96407.92
2017-09-08T01:54:51.350Z,96409.09
2017-09-08T01:57:17.124Z,96404.23
2017-09-08T01:59:42.874Z,96402.55
2017-09-08T02:02:08.664Z,96396.59
2017-09-08T02:04:34.426Z,96405.53
2017-09-08T02:07:00.207Z,96398.63
2017-09-08T02:09:25.956Z,96399.50
2017-09-08T02:11:51.776Z,96402.73
2017-09-08T02:14:17.548Z,96396.92
2017-09-08T02:16:43.307Z,96399.28
2017-09-08T02:19:09.166Z,96389.22
2017-09-08T02:21:41.850Z,96386.85
2017-09-08T02:24:07.658Z,96381.22
2017-09-08T02:26:33.512Z,96374.41
2017-09-08T02:28:59.301Z,96375.02
2017-09-08T02:31:25.128Z,96380.75
2017-09-08T02:33:51.075Z,96377.70
2017-09-08T02:36:16.866Z,96379.06
2017-09-08T02:38:42.716Z,96375.74
2017-09-08T02:41:08.563Z,96376.45
2017-09-08T02:43:34.366Z,96374.63
2017-09-08T02:46:00.114Z,96367.41
2017-09-08T02:48:25.903Z,96372.52
2017-09-08T02:50:51.671Z,96372.63
2017-09-08T02:53:17.428Z,96369.19
2017-09-08T02:55:43.298Z,96373.09
2017-09-08T02:58:09.091Z,96375.52
2017-09-08T03:00:34.858Z,96362.30
2017-09-08T03:03:00.598Z,96366.05
2017-09-08T03:05:26.379Z,96363.66
2017-09-08T03:07:52.231Z,96366.05
2017-09-08T03:10:17.996Z,96364.13
2017-09-08T03:12:43.882Z,96367.02
2017-09-08T03:15:09.650Z,96368.12
2017-09-08T03:17:35.441Z,96370.06
2017-09-08T03:20:01.190Z,96366.67
2017-09-08T03:22:26.959Z,96369.55
2017-09-08T03:24:53.794Z,96366.00
2017-09-08T03:27:19.639Z,96360.30
2017-09-08T03:29:45.400Z,96355.19
2017-09-08T03:32:11.168Z,96352.88
2017-09-08T03:34:36.911Z,96350.77
2017-09-08T03:37:02.758Z,96345.23
2017-09-08T03:39:28.566Z,96348.00
2017-09-08T03:41:54.348Z,96340.60
2017-09-08T03:44:20.135Z,96328.88
2017-09-08T03:46:45.910Z,96338.36
2017-09-08T03:49:11.660Z,96332.84
2017-09-08T03:51:37.427Z,96330.63
2017-09-08T03:54:03.167Z,96326.98
2017-09-08T03:56:29.026Z,96334.55
2017-09-08T03:58:54.814Z,96326.10
2017-09-08T04:01:20.655Z,96329.16
2017-09-08T04:03:46.458Z,96330.95
2017-09-08T04:06:12.211Z,96332.39
2017-09-08T04:08:37.950Z,96327.14
2017-09-08T04:11:03.751Z,96327.14
2017-09-08T04:13:29.537Z,96325.84
2017-09-08T04:15:55.286Z,96318.95
2017-09-08T04:18:21.124Z,96317.80
2017-09-08T04:20:46.979Z,96313.96
2017-09-08T04:23:12.724Z,96315.03
2017-09-08T04:25:38.551Z,96312.85
2017-09-08T04:28:04.300Z,96316.30
2017-09-08T04:30:30.048Z,96315.28
2017-09-08T04:32:55.835Z,96317.88
2017-09-08T04:35:21.591Z,96311.83
2017-09-08T04:37:47.354Z,96310.33
2017-09-08T04:40:13.200Z,96311.77
2017-09-08T04:42:38.969Z,96311.08
2017-09-08T04:45:04.734Z,96315.38
2017-09-08T04:47:30.794Z,96313.50
2017-09-08T04:49:56.641Z,96312.55
2017-09-08T04:52:22.406Z,96313.59
2017-09-08T04:54:48.167Z,96318.09
2017-09-08T04:57:13.938Z,96317.38
2017-09-08T04:59:39.703Z,96313.11
2017-09-08T05:02:05.464Z,96313.03
2017-09-08T05:04:31.206Z,96315.54
2017-09-08T05:06:56.973Z,96315.40
2017-09-08T05:09:22.734Z,96316.44
2017-09-08T05:11:48.479Z,96317.38
2017-09-08T05:14:14.335Z,96317.56
2017-09-08T05:16:40.095Z,96325.91
2017-09-08T05:19:05.923Z,96320.98
2017-09-08T05:21:31.788Z,96321.29
2017-09-08T05:23:58.116Z,96326.70
2017-09-08T05:26:23.881Z,96332.38
2017-09-08T05:28:49.662Z,96334.89
2017-09-08T05:31:15.431Z,96329.35
2017-09-08T05:33:41.163Z,96336.20
2017-09-08T05:36:07.043Z,96342.72
2017-09-08T05:38:32.789Z,96338.09
2017-09-08T05:40:58.585Z,96335.42
2017-09-08T05:43:24.346Z,96344.61
2017-09-08T05:45:50.118Z,96341.87
2017-09-08T05:48:15.854Z,96336.53
2017-09-08T05:50:41.867Z,96343.47
2017-09-08T05:53:07.731Z,96342.95
2017-09-08T05:55:34.452Z,96334.28
2017-09-08T05:58:00.208Z,96320.58
2017-09-08T06:00:26.003Z,96323.05
2017-09-08T06:02:51.752Z,96321.95
2017-09-08T06:05:17.526Z,96317.58
2017-09-08T06:07:43.299Z,96299.52
2017-09-08T06:10:09.107Z,96310.14
2017-09-08T06:12:34.900Z,96300.30
2017-09-08T06:15:00.751Z,96298.02
2017-09-08T06:17:26.543Z,96300.13
2017-09-08T06:19:52.291Z,96296.55
2017-09-08T06:22:18.930Z,96290.22
2017-09-08T06:24:44.795Z,96285.52
2017-09-08T06:27:10.544Z,96280.50
2017-09-08T06:29:36.382Z,96281.46
2017-09-08T06:32:02.158Z,96271.09
2017-09-08T06:34:27.971Z,96274.69
2017-09-08T06:36:53.732Z,96265.66
2017-09-08T06:39:19.538Z,96274.75
2017-09-08T06:41:45.275Z,96263.35
2017-09-08T06:44:11.100Z,96264.77
2017-09-08T06:46:36.876Z,96265.41
2017-09-08T06:49:02.687Z,96261.13
2017-09-08T06:51:28.435Z,96257.61
2017-09-08T06:53:54.219Z,96253.14
2017-09-08T06:56:19.971Z,96251.79
2017-09-08T06:58:46.158Z,96255.23
2017-09-08T07:01:12.016Z,96258.69
2017-09-08T07:03:37.847Z,96259.20
2017-09-08T07:06:03.671Z,96260.63
2017-09-08T07:08:29.419Z,96255.98
2017-09-08T07:10:55.208Z,96249.66
2017-09-08T07:13:21.091Z,96254.80
2017-09-08T07:15:46.871Z,96252.30
2017-09-08T07:18:12.726Z,96250.30
2017-09-08T07:20:38.487Z,96242.91
2017-09-08T07:23:04.227Z,96246.49
2017-09-08T07:25:30.007Z,96249.75
2017-09-08T07:27:55.805Z,96241.25
2017-09-08T07:30:21.543Z,96227.20
2017-09-08T07:32:47.304Z,96231.97
2017-09-08T07:35:13.111Z,96235.98
2017-09-08T07:37:38.853Z,96240.00
2017-09-08T07:40:04.750Z,96236.75
2017-09-08T07:42:30.547Z,96230.56
2017-09-08T07:44:56.294Z,96237.20
2017-09-08T07:47:22.082Z,96239.81
2017-09-08T07:49:47.835Z,96245.14
2017-09-08T07:52:13.603Z,96237.94
2017-09-08T07:54:39.460Z,96234.70
2017-09-08T07:57:05.251Z,96246.34
2017-09-08T07:59:31.003Z,96243.29
2017-09-08T08:01:56.760Z,96250.06
2017-09-08T08:04:22.582Z,96242.66
2017-09-08T08:06:48.322Z,96251.80
2017-09-08T08:09:14.069Z,96245.63
2017-09-08T08:11:39.851Z,96243.19
2017-09-08T08:14:05.675Z,96249.67
2017-09-08T08:16:31.455Z,96253.30
2017-09-08T08:18:57.191Z,96243.21
2017-09-08T08:21:22.947Z,96243.53
2017-09-08T08:23:48.912Z,96230.64
2017-09-08T08:26:14.655Z,96223.05
2017-09-08T08:28:40.486Z,96230.16
2017-09-08T08:31:06.234Z,96222.96
2017-09-08T08:33:32.015Z,96226.52
2017-09-08T08:35:57.871Z,96227.61
2017-09-08T08:38:23.659Z,96220.59
2017-09-08T08:40:49.420Z,96216.03
2017-09-08T08:43:15.211Z,96217.95
2017-09-08T08:45:40.951Z,96217.27
2017-09-08T08:48:06.728Z,96223.58
2017-09-08T08:50:32.539Z,96217.41
2017-09-08T08:52:58.320Z,96223.55
2017-09-08T08:55:25.330Z,96222.08
2017-09-08T08:57:51.139Z,96215.05
2017-09-08T09:00:16.904Z,96210.88
2017-09-08T09:02:42.712Z,96211.38
2017-09-08T09:05:08.455Z,96215.79
2017-09-08T09:07:34.186Z,96202.58
2017-09-08T09:09:59.971Z,96193.01
2017-09-08T09:12:25.727Z,96202.09
2017-09-08T09:14:51.474Z,96202.86
2017-09-08T09:17:17.322Z,96193.67
2017-09-08T09:19:43.183Z,96189.08
2017-09-08T09:22:08.930Z,96187.75
2017-09-08T09:24:34.690Z,96182.28
2017-09-08T09:27:00.484Z,96182.78
2017-09-08T09:29:26.224Z,96178.21
2017-09-08T09:31:51.974Z,96168.92
2017-09-08T09:34:17.767Z,96162.84
2017-09-08T09:36:43.551Z,96159.41
2017-09-08T09:39:09.295Z,96152.98
2017-09-08T09:41:35.070Z,96145.63
2017-09-08T09:44:00.825Z,96151.77
2017-09-08T09:46:26.602Z,96136.64
2017-09-08T09:48:52.342Z,96138.01
2017-09-08T09:51:18.374Z,96126.28
2017-09-08T09:53:44.135Z,96136.63
2017-09-08T09:56:09.882Z,96131.74
2017-09-08T09:58:35.686Z,96135.45
2017-09-08T10:01:01.444Z,96128.16
2017-09-08T10:03:27.196Z,96128.02
2017-09-08T10:05:53.267Z,96125.38
2017-09-08T10:08:19.118Z,96122.76
2017-09-08T10:10:44.863Z,96125.64
2017-09-08T10:13:10.683Z,96115.36
2017-09-08T10:15:36.431Z,96105.59
2017-09-08T10:18:02.219Z,96109.42
2017-09-08T10:20:27.966Z,96113.73
2017-09-08T10:22:53.791Z,96109.19
2017-09-08T10:25:19.591Z,96103.27
2017-09-08T10:27:45.410Z,96099.05
2017-09-08T10:30:11.191Z,96095.91
2017-09-08T10:32:36.943Z,96097.17
2017-09-08T10:35:02.748Z,96091.42
2017-09-08T10:37:28.527Z,96096.64
2017-09-08T10:39:54.420Z,96092.23
2017-09-08T10:42:20.254Z,96117.24
2017-09-08T10:44:46.018Z,96086.48
2017-09-08T10:47:11.776Z,96122.78
2017-09-08T10:49:37.555Z,96102.97
2017-09-08T10:52:03.299Z,96090.13
2017-09-08T10:54:29.110Z,96097.10
2017-09-08T10:56:54.851Z,96096.47
2017-09-08T10:59:20.658Z,96086.09
2017-09-08T11:01:46.457Z,96088.11
2017-09-08T11:04:12.239Z,96086.09
2017-09-08T11:06:37.983Z,96089.28
2017-09-08T11:09:03.900Z,96091.10
2017-09-08T11:11:29.647Z,96092.33
2017-09-08T11:13:55.423Z,96094.03
2017-09-08T11:16:22.202Z,96089.28
2017-09-08T11:18:47.949Z,96093.73
2017-09-08T11:21:13.803Z,96080.16
2017-09-08T11:23:39.574Z,96084.38
2017-09-08T11:26:05.351Z,96083.80
2017-09-08T11:28:31.094Z,96095.58
2017-09-08T11:30:56.902Z,96085.47
2017-09-08T11:33:28.707Z,96090.63
2017-09-08T11:36:00.765Z,96084.41
2017-09-08T11:38:26.517Z,96084.94
2017-09-08T11:40:52.350Z,96081.44
2017-09-08T11:43:18.202Z,96082.00
2017-09-08T11:45:43.992Z,96078.44
2017-09-08T11:48:09.779Z,96072.95
2017-09-08T11:50:35.553Z,96070.11
2017-09-08T11:53:01.353Z,96060.67
2017-09-08T11:55:27.535Z,96065.89
2017-09-08T11:57:53.327Z,96057.65
2017-09-08T12:00:19.190Z,96066.44
2017-09-08T12:02:44.986Z,96054.20
2017-09-08T12:05:10.731Z,96052.55
2017-09-08T12:07:36.504Z,96052.31
2017-09-08T12:10:02.259Z,96052.71
2017-09-08T12:12:28.067Z,96050.99
2017-09-08T12:14:53.826Z,96051.35
2017-09-08T12:17:19.623Z,96051.02
2017-09-08T12:19:45.474Z,96049.62
2017-09-08T12:22:11.271Z,96047.01
2017-09-08T12:24:37.261Z,96045.20
2017-09-08T12:27:03.032Z,96042.06
2017-09-08T12:29:28.820Z,96054.56
2017-09-08T12:31:54.563Z,96050.28
2017-09-08T12:34:20.322Z,96047.27
2017-09-08T12:36:46.150Z,96041.48
2017-09-08T12:39:11.895Z,96041.30
2017-09-08T12:41:37.726Z,96038.64
2017-09-08T12:44:03.482Z,96048.29
2017-09-08T12:46:29.235Z,96044.21
2017-09-08T12:48:55.820Z,96031.84
2017-09-08T12:51:22.606Z,96041.19
2017-09-08T12:53:48.911Z,96040.33
2017-09-08T12:56:14.678Z,96044.21
2017-09-08T12:58:40.487Z,96030.70
2017-09-08T13:01:06.346Z,96020.85
2017-09-08T13:03:32.162Z,96028.87
2017-09-08T13:05:58.034Z,96023.83
2017-09-08T13:08:23.790Z,96014.47
2017-09-08T13:10:49.623Z,96024.25
2017-09-08T13:13:15.427Z,96018.38
2017-09-08T13:15:41.179Z,96013.52
2017-09-08T13:18:07.023Z,96004.72
2017-09-08T13:20:32.791Z,96002.09
2017-09-08T13:22:58.543Z,95999.71
2017-09-08T13:25:24.336Z,95997.03
2017-09-08T13:27:50.118Z,95989.42
2017-09-08T13:30:15.906Z,95988.00
2017-09-08T13:32:41.671Z,95980.70
2017-09-08T13:35:07.416Z,95966.36
2017-09-08T13:37:33.195Z,95971.91
2017-09-08T13:39:58.943Z,95962.42
2017-09-08T13:42:24.807Z,95964.16
2017-09-08T13:44:50.552Z,95961.42
2017-09-08T13:47:16.291Z,95964.34
2017-09-08T13:49:42.087Z,95959.35
2017-09-08T13:52:07.954Z,95949.33
2017-09-08T13:54:33.782Z,95952.16
2017-09-08T13:56:59.548Z,95951.17
2017-09-08T13:59:25.300Z,95951.18
2017-09-08T14:01:51.173Z,95940.91
2017-09-08T14:04:16.987Z,95938.50
2017-09-08T14:06:42.727Z,95944.52
2017-09-08T14:09:08.496Z,95950.03
2017-09-08T14:11:34.382Z,95948.93
2017-09-08T14:14:00.187Z,95952.64
2017-09-08T14:16:25.983Z,95938.98
2017-09-08T14:18:51.839Z,95931.79
2017-09-08T14:21:17.686Z,95929.53
2017-09-08T14:23:43.483Z,95929.02
2017-09-08T14:26:09.276Z,95937.19
2017-09-08T14:28:35.106Z,95920.98
2017-09-08T14:31:00.923Z,95923.23
2017-09-08T14:33:26.658Z,95916.33
2017-09-08T14:35:52.435Z,95919.34
2017-09-08T14:38:18.254Z,95920.45
2017-09-08T14:40:44.115Z,95908.29
2017-09-08T14:43:09.883Z,95901.88
2017-09-08T14:45:35.627Z,95891.50
2017-09-08T14:48:01.434Z,95890.50
2017-09-08T14:50:27.263Z,95892.47
2017-09-08T14:52:53.043Z,95882.75
2017-09-08T14:55:19.100Z,95885.23
2017-09-08T14:57:44.980Z,95888.41
2017-09-08T15:00:10.731Z,95884.03
2017-09-08T15:02:36.571Z,95879.96
2017-09-08T15:05:02.347Z,95874.30
2017-09-08T15:07:28.083Z,95868.46
2017-09-08T15:09:53.819Z,95858.86
2017-09-08T15:12:19.620Z,95854.81
2017-09-08T15:14:45.372Z,95859.84
2017-09-08T15:17:11.131Z,95855.23
2017-09-08T15:19:36.962Z,95856.70
2017-09-08T15:22:02.721Z,95854.34
2017-09-08T15:24:28.484Z,95854.87
2017-09-08T15:26:54.275Z,95852.92
2017-09-08T15:29:20.024Z,95852.67
2017-09-08T15:51:43.318Z,95850.52
2017-09-08T15:54:32.275Z,95854.17
2017-09-08T16:13:43.220Z,95818.16
2017-09-08T16:16:32.124Z,95816.33
2017-09-08T16:35:42.950Z,95788.98
2017-09-08T16:38:32.300Z,95788.61
2017-09-08T16:41:29.638Z,95792.42
2017-09-08T16:44:26.866Z,95794.20
2017-09-08T16:47:24.315Z,95790.86
2017-09-08T16:50:21.499Z,95787.53
2017-09-08T17:09:31.971Z,95777.00
2017-09-08T17:22:00.675Z,95771.64
2017-09-08T17:44:25.113Z,95745.83
2017-09-08T17:47:14.442Z,95757.28
2017-09-08T17:50:11.820Z,95752.41
2017-09-08T17:53:08.954Z,95751.91
2017-09-08T18:06:05.959Z,95749.52
2017-09-08T18:08:55.766Z,95749.92
2017-09-08T18:28:05.895Z,95750.97
2017-09-08T18:30:54.846Z,95752.48
2017-09-08T18:50:06.491Z,95747.47
2017-09-08T18:52:55.800Z,95738.73
2017-09-08T19:12:06.299Z,95701.94
2017-09-08T19:14:55.678Z,95711.02
2017-09-08T19:17:53.235Z,95708.61
2017-09-08T19:20:50.582Z,95698.47
2017-09-08T19:23:47.611Z,95700.76
2017-09-08T19:33:36.859Z,95691.61
2017-09-08T19:53:11.754Z,95660.58
2017-09-08T20:12:34.135Z,95655.22
2017-09-08T20:15:31.400Z,95647.63
2017-09-08T20:17:57.178Z,95641.09
2017-09-08T20:20:46.142Z,95633.30
2017-09-08T20:39:56.946Z,95611.70
2017-09-08T20:42:45.971Z,95617.84
2017-09-08T20:45:43.823Z,95614.64
2017-09-08T21:01:34.388Z,95588.02
2017-09-08T21:04:23.544Z,95600.06
2017-09-08T21:23:35.427Z,95580.27
2017-09-08T21:26:24.251Z,95581.50
2017-09-08T21:45:35.888Z,95564.75
2017-09-08T21:48:24.931Z,95559.58
2017-09-08T21:51:21.787Z,95560.08
2017-09-08T22:07:11.987Z,95540.26
2017-09-08T22:10:01.363Z,95537.98
2017-09-08T22:12:58.322Z,95534.27
2017-09-08T22:15:55.298Z,95523.68
2017-09-08T22:18:52.331Z,95516.89
2017-09-08T22:21:49.698Z,95518.28
2017-09-08T22:24:47.023Z,95510.41
2017-09-08T22:27:44.483Z,95509.17
2017-09-08T22:46:52.954Z,95506.77
2017-09-08T22:49:49.687Z,95503.73
2017-09-08T22:52:15.486Z,95498.42
2017-09-08T22:55:04.850Z,95488.52
2017-09-08T23:14:16.226Z,95458.40
2017-09-08T23:17:05.503Z,95457.73
2017-09-08T23:20:02.504Z,95464.55
2017-09-08T23:23:00.402Z,95450.42
2017-09-08T23:35:45.313Z,95446.72
2017-09-08T23:38:34.943Z,95445.33
2017-09-08T23:41:32.212Z,95450.98
2017-09-08T23:44:29.299Z,95441.08
2017-09-08T23:47:26.518Z,95441.30
2017-09-08T23:57:18.023Z,95424.91
